Time;durP1;ratioP1;P1;durP2;ratioP2;P2;SDS_P1;SDS_P2;PMS_P1;PMS_P2;Temp;Humidity;BMP_temperature;BMP_pressure;BME280_temperature;BME280_humidity;BME280_pressure;Samples;Min_cycle;Max_cycle;Signal;HPM_P1;HPM_P2
2022/01/04 00:00:20;;;;;;;;;;;;;;;8.72;72.80;100842.94;5073544;28;19912;-79
2022/01/04 00:03:06;;;;;;;;;;;;;;;8.66;72.64;100837.91;5072913;28;19916;-77
2022/01/04 00:05:51;;;;;;;;;;;;;;;8.75;73.29;100828.78;5075952;28;19912;-79
2022/01/04 00:08:35;;;;;;;;;;;;;;;8.86;72.55;100835.63;5073722;28;19916;-79
2022/01/04 00:11:31;;;;;;;;;;;;;;;8.87;72.21;100831.00;5078151;28;19913;-78
2022/01/04 00:14:17;;;;;;;;;;;;;;;9.01;71.57;100819.06;5074800;28;19912;-78
2022/01/04 00:17:01;;;;;;;;;;;;;;;8.95;72.86;100824.88;5073371;28;19912;-78
2022/01/04 00:19:46;;;;;;;;;;;;;;;8.92;72.88;100814.63;5077477;28;19912;-78
2022/01/04 00:22:31;;;;;;;;;;;;;;;8.88;72.92;100814.44;5075564;28;19917;-79
2022/01/04 00:25:16;;;;;;;;;;;;;;;8.84;72.43;100810.72;5073135;28;19916;-78
2022/01/04 00:28:01;;;;;;;;;;;;;;;8.65;73.15;100815.41;5077467;28;19912;-79
2022/01/04 00:30:46;;;;;;;;;;;;;;;8.71;72.69;100802.56;5075805;28;19912;-77
2022/01/04 00:33:30;;;;;;;;;;;;;;;8.69;73.14;100800.16;5072886;28;19912;-78
2022/01/04 00:36:14;;;;;;;;;;;;;;;8.82;71.91;100787.72;5075862;28;19912;-77
2022/01/04 00:38:59;;;;;;;;;;;;;;;8.83;72.75;100778.50;5075759;28;19913;-79
2022/01/04 00:41:43;;;;;;;;;;;;;;;8.88;72.78;100781.09;5073718;28;19916;-78
2022/01/04 00:44:27;;;;;;;;;;;;;;;8.87;72.73;100777.59;5076203;28;20303;-79
2022/01/04 00:47:12;;;;;;;;;;;;;;;8.78;72.43;100776.69;5074297;28;19912;-79
2022/01/04 00:49:56;;;;;;;;;;;;;;;8.70;73.17;100779.28;5074445;28;20292;-79
2022/01/04 00:52:40;;;;;;;;;;;;;;;8.77;72.46;100779.69;5072240;28;19916;-78
2022/01/04 00:55:25;;;;;;;;;;;;;;;8.72;72.88;100782.50;5060595;28;19916;-79
2022/01/04 00:58:10;;;;;;;;;;;;;;;8.74;73.53;100777.56;5074198;28;19912;-79
2022/01/04 01:00:54;;;;;;;;;;;;;;;8.87;72.39;100780.28;5072104;28;19916;-78
2022/01/04 01:03:38;;;;;;;;;;;;;;;8.92;71.92;100779.38;5075310;28;19912;-79
2022/01/04 01:06:23;;;;;;;;;;;;;;;8.89;71.85;100778.06;5074494;28;19924;-78
2022/01/04 01:09:08;;;;;;;;;;;;;;;8.87;72.95;100782.19;5072599;28;19912;-78
2022/01/04 01:11:52;;;;;;;;;;;;;;;8.77;72.75;100766.94;5076271;28;20295;-79
2022/01/04 01:14:37;;;;;;;;;;;;;;;8.85;73.22;100770.84;5074343;28;19912;-78
2022/01/04 01:17:21;;;;;;;;;;;;;;;8.91;72.70;100775.88;5072888;28;19912;-78
2022/01/04 01:20:08;;;;;;;;;;;;;;;8.82;72.23;100774.97;5076582;28;19912;-79
2022/01/04 01:22:52;;;;;;;;;;;;;;;8.82;72.63;100774.97;5074424;28;19916;-79
2022/01/04 01:25:37;;;;;;;;;;;;;;;8.91;72.40;100775.06;5072943;28;19912;-79
2022/01/04 01:28:22;;;;;;;;;;;;;;;8.90;72.17;100778.88;5077038;28;19912;-78
2022/01/04 01:31:07;;;;;;;;;;;;;;;8.90;71.75;100770.75;5074923;28;19912;-78
2022/01/04 01:33:52;;;;;;;;;;;;;;;8.95;72.30;100768.72;5072403;28;20289;-78
2022/01/04 01:36:36;;;;;;;;;;;;;;;8.99;71.95;100763.50;5074310;28;19913;-78
2022/01/04 01:39:20;;;;;;;;;;;;;;;9.06;71.80;100757.66;5075364;28;20381;-78
2022/01/04 01:42:05;;;;;;;;;;;;;;;9.08;71.24;100753.56;5073141;28;20301;-78
2022/01/04 01:44:51;;;;;;;;;;;;;;;8.97;72.27;100742.13;5076484;28;20377;-78
2022/01/04 01:47:38;;;;;;;;;;;;;;;8.96;72.29;100747.84;5072567;28;19917;-77
2022/01/04 01:50:22;;;;;;;;;;;;;;;8.92;71.76;100744.13;5073592;28;20373;-77
2022/01/04 01:53:08;;;;;;;;;;;;;;;9.08;71.47;100733.78;5077075;28;19913;-78
2022/01/04 01:55:52;;;;;;;;;;;;;;;9.02;71.85;100727.66;5078262;28;19912;-78
2022/01/04 01:58:37;;;;;;;;;;;;;;;9.06;71.13;100725.94;5077825;28;19928;-78
2022/01/04 02:01:21;;;;;;;;;;;;;;;9.08;71.09;100718.31;5075553;28;20336;-78
2022/01/04 02:04:06;;;;;;;;;;;;;;;9.41;69.98;100711.56;5078764;28;19912;-78
2022/01/04 02:06:50;;;;;;;;;;;;;;;9.31;69.84;100708.28;5077903;28;19913;-78
2022/01/04 02:09:38;;;;;;;;;;;;;;;9.05;70.84;100699.91;5075835;28;20412;-78
2022/01/04 02:12:23;;;;;;;;;;;;;;;9.18;70.86;100693.66;5079783;28;19912;-78
2022/01/04 02:15:09;;;;;;;;;;;;;;;9.23;70.66;100684.59;5076920;28;19913;-78
2022/01/04 02:17:54;;;;;;;;;;;;;;;9.08;70.91;100688.47;5075014;28;19912;-77
2022/01/04 02:20:38;;;;;;;;;;;;;;;9.07;72.05;100680.63;5076039;28;19916;-78
2022/01/04 02:23:24;;;;;;;;;;;;;;;9.15;71.28;100680.69;5066320;28;20328;-79
2022/01/04 02:26:09;;;;;;;;;;;;;;;9.30;70.66;100666.75;5072632;28;19913;-79
2022/01/04 02:28:53;;;;;;;;;;;;;;;9.15;71.27;100664.41;5075102;28;19916;-79
2022/01/04 02:31:38;;;;;;;;;;;;;;;9.09;71.45;100678.41;5089246;28;19913;-79
2022/01/04 02:34:22;;;;;;;;;;;;;;;9.12;71.57;100672.38;5078960;28;20400;-78
2022/01/04 02:37:07;;;;;;;;;;;;;;;9.34;70.42;100666.97;5087686;28;19912;-78
2022/01/04 02:39:53;;;;;;;;;;;;;;;9.06;71.63;100668.16;5093352;28;19913;-79
2022/01/04 02:42:38;;;;;;;;;;;;;;;9.11;71.48;100655.28;5070977;28;19916;-79
2022/01/04 02:45:23;;;;;;;;;;;;;;;9.25;70.76;100661.47;5071042;28;19912;-79
2022/01/04 02:48:07;;;;;;;;;;;;;;;9.15;70.78;100653.56;5077829;28;19913;-78
2022/01/04 02:50:52;;;;;;;;;;;;;;;9.10;72.09;100658.28;5069490;28;19916;-79
2022/01/04 02:53:36;;;;;;;;;;;;;;;8.99;72.92;100655.00;5072770;28;20280;-77
2022/01/04 02:56:20;;;;;;;;;;;;;;;9.09;73.21;100654.81;5077875;28;19912;-78
2022/01/04 02:59:05;;;;;;;;;;;;;;;9.01;72.88;100644.66;5076307;28;20322;-78
2022/01/04 03:01:49;;;;;;;;;;;;;;;8.96;73.08;100640.16;5080068;28;20320;-77
2022/01/04 03:04:33;;;;;;;;;;;;;;;8.98;73.08;100637.97;5077657;28;19912;-78
2022/01/04 03:07:18;;;;;;;;;;;;;;;9.18;72.76;100638.59;5075256;28;19912;-78
2022/01/04 03:10:04;;;;;;;;;;;;;;;9.12;72.82;100632.47;5074519;28;19912;-78
2022/01/04 03:12:48;;;;;;;;;;;;;;;9.04;73.06;100632.41;5078084;28;19912;-78
2022/01/04 03:15:33;;;;;;;;;;;;;;;9.13;73.35;100641.44;5076042;28;20377;-78
2022/01/04 03:18:18;;;;;;;;;;;;;;;9.17;73.02;100642.41;5074190;28;20296;-77
2022/01/04 03:21:02;;;;;;;;;;;;;;;9.02;73.27;100625.38;5078248;28;19912;-77
2022/01/04 03:23:46;;;;;;;;;;;;;;;8.99;73.11;100631.41;5075858;28;19912;-78
2022/01/04 03:26:31;;;;;;;;;;;;;;;8.89;73.97;100625.41;5074182;28;19913;-78
2022/01/04 03:29:15;;;;;;;;;;;;;;;9.18;73.36;100612.28;5078521;28;19916;-78
2022/01/04 03:31:59;;;;;;;;;;;;;;;9.16;73.36;100614.47;5076624;28;19912;-79
2022/01/04 03:34:44;;;;;;;;;;;;;;;9.09;73.26;100624.16;5074121;28;19912;-79
2022/01/04 03:37:28;;;;;;;;;;;;;;;9.05;72.86;100617.72;5074553;28;19912;-78
2022/01/04 03:40:13;;;;;;;;;;;;;;;9.11;72.37;100611.09;5076905;28;19913;-77
2022/01/04 03:42:57;;;;;;;;;;;;;;;9.22;71.80;100601.59;5074923;28;19916;-78
2022/01/04 03:45:42;;;;;;;;;;;;;;;9.09;72.71;100597.84;5078594;28;20300;-77
2022/01/04 03:48:26;;;;;;;;;;;;;;;9.02;72.76;100600.97;5077577;28;19912;-80
2022/01/04 03:51:11;;;;;;;;;;;;;;;8.89;73.54;100599.09;5074953;28;20384;-78
2022/01/04 03:53:56;;;;;;;;;;;;;;;8.96;72.77;100598.69;5079226;28;19912;-79
2022/01/04 03:56:40;;;;;;;;;;;;;;;9.21;71.54;100595.38;5077018;28;19912;-78
2022/01/04 03:59:24;;;;;;;;;;;;;;;9.17;71.79;100588.16;5075085;28;19912;-78
2022/01/04 04:02:09;;;;;;;;;;;;;;;9.10;72.04;100590.47;5072995;28;19916;-78
2022/01/04 04:04:54;;;;;;;;;;;;;;;9.14;72.01;100589.59;5076785;28;20293;-78
2022/01/04 04:07:39;;;;;;;;;;;;;;;9.00;72.38;100572.53;5074094;28;19912;-78
2022/01/04 04:10:23;;;;;;;;;;;;;;;8.98;72.65;100580.22;5073610;28;19912;-78
2022/01/04 04:13:07;;;;;;;;;;;;;;;9.07;72.23;100567.50;5077158;28;19912;-78
2022/01/04 04:15:52;;;;;;;;;;;;;;;9.01;72.38;100564.13;5075765;28;19912;-77
2022/01/04 04:18:36;;;;;;;;;;;;;;;9.04;71.67;100567.34;5069549;28;20372;-78
2022/01/04 04:21:21;;;;;;;;;;;;;;;9.26;71.22;100559.97;5076956;28;20248;-78
2022/01/04 04:24:05;;;;;;;;;;;;;;;9.13;72.37;100566.28;5075292;28;19916;-78
2022/01/04 04:26:49;;;;;;;;;;;;;;;8.80;73.23;100575.72;5073737;28;19912;-78
2022/01/04 04:29:34;;;;;;;;;;;;;;;8.87;73.88;100573.41;5077804;28;19912;-78
2022/01/04 04:32:18;;;;;;;;;;;;;;;8.89;73.91;100557.63;5075867;28;19912;-78
2022/01/04 04:35:04;;;;;;;;;;;;;;;8.91;73.14;100550.00;5074023;28;19912;-78
2022/01/04 04:37:48;;;;;;;;;;;;;;;8.87;73.23;100554.44;5073038;28;19912;-77
2022/01/04 04:40:33;;;;;;;;;;;;;;;8.87;73.54;100543.59;5076046;28;19912;-78
2022/01/04 04:43:18;;;;;;;;;;;;;;;9.02;72.34;100548.66;5073555;28;19916;-77
2022/01/04 04:46:02;;;;;;;;;;;;;;;8.92;72.44;100557.81;5072119;28;19916;-77
2022/01/04 04:48:47;;;;;;;;;;;;;;;8.84;73.48;100560.44;5076076;28;19912;-78
2022/01/04 04:51:32;;;;;;;;;;;;;;;8.93;73.65;100558.63;5074315;28;19923;-78
2022/01/04 04:54:16;;;;;;;;;;;;;;;8.87;73.68;100551.72;5071769;28;19916;-77
2022/01/04 04:57:00;;;;;;;;;;;;;;;8.95;73.65;100553.69;5074869;28;19912;-78
2022/01/04 04:59:45;;;;;;;;;;;;;;;8.86;74.08;100547.41;5074668;28;19912;-78
2022/01/04 05:02:29;;;;;;;;;;;;;;;8.93;74.14;100562.16;5078403;28;19916;-77
2022/01/04 05:05:14;;;;;;;;;;;;;;;8.87;74.08;100551.72;5076275;28;19912;-78
2022/01/04 05:07:58;;;;;;;;;;;;;;;8.90;74.16;100553.81;5071181;28;19912;-78
2022/01/04 05:10:43;;;;;;;;;;;;;;;8.99;74.24;100560.09;5071564;28;20381;-78
2022/01/04 05:13:27;;;;;;;;;;;;;;;9.02;73.78;100564.91;5073759;28;19912;-78
2022/01/04 05:16:12;;;;;;;;;;;;;;;9.08;73.68;100562.88;5073091;28;20475;-78
2022/01/04 05:18:57;;;;;;;;;;;;;;;9.08;73.79;100571.81;5072724;28;20304;-77
2022/01/04 05:21:41;;;;;;;;;;;;;;;9.14;73.46;100567.88;5076192;28;19916;-78
2022/01/04 05:24:25;;;;;;;;;;;;;;;8.97;73.69;100554.19;5067138;28;19916;-77
2022/01/04 05:27:10;;;;;;;;;;;;;;;8.78;74.49;100556.28;5072537;28;20297;-78
2022/01/04 05:29:54;;;;;;;;;;;;;;;8.88;74.57;100553.34;5076546;28;19913;-77
2022/01/04 05:32:39;;;;;;;;;;;;;;;8.98;74.16;100558.50;5075205;28;19912;-78
2022/01/04 05:35:23;;;;;;;;;;;;;;;8.88;73.98;100550.63;5073067;28;20301;-77
2022/01/04 05:38:07;;;;;;;;;;;;;;;8.91;73.96;100553.50;5077287;28;20377;-78
2022/01/04 05:40:52;;;;;;;;;;;;;;;8.88;73.92;100545.19;5075471;28;19912;-77
2022/01/04 05:43:36;;;;;;;;;;;;;;;8.74;74.43;100555.28;5073232;28;19920;-77
2022/01/04 05:46:21;;;;;;;;;;;;;;;8.88;73.86;100554.13;5071783;28;19916;-78
2022/01/04 05:49:05;;;;;;;;;;;;;;;8.84;73.77;100547.69;5075736;28;20373;-78
2022/01/04 05:51:49;;;;;;;;;;;;;;;8.74;74.25;100549.84;5073703;28;20318;-77
2022/01/04 05:54:34;;;;;;;;;;;;;;;8.84;73.78;100536.84;5071896;28;19912;-78
2022/01/04 05:57:19;;;;;;;;;;;;;;;8.86;73.65;100539.28;5073393;28;19912;-77
2022/01/04 06:00:04;;;;;;;;;;;;;;;8.74;74.07;100525.44;5074253;28;19912;-78
2022/01/04 06:02:54;;;;;;;;;;;;;;;8.68;73.99;100507.72;5071234;28;19917;-77
2022/01/04 06:05:38;;;;;;;;;;;;;;;8.75;73.98;100510.78;5075495;28;19912;-77
2022/01/04 06:08:23;;;;;;;;;;;;;;;8.71;73.74;100498.97;5073915;28;20292;-77
2022/01/04 06:11:18;;;;;;;;;;;;;;;8.73;74.38;100508.41;5072151;28;19912;-77
2022/01/04 06:17:07;;;;;;;;;;;;;;;8.63;74.40;100510.56;5070375;28;19916;-77
2022/01/04 06:19:52;;;;;;;;;;;;;;;8.74;74.29;100518.13;5076827;28;19916;-77
2022/01/04 06:22:37;;;;;;;;;;;;;;;8.76;73.85;100512.41;5068552;28;20332;-78
2022/01/04 06:25:21;;;;;;;;;;;;;;;8.72;74.05;100514.94;5072718;28;19913;-77
2022/01/04 06:28:06;;;;;;;;;;;;;;;8.76;73.80;100517.81;5076860;28;19920;-77
2022/01/04 06:30:51;;;;;;;;;;;;;;;8.72;73.77;100517.66;5074805;28;20408;-77
2022/01/04 06:33:35;;;;;;;;;;;;;;;8.71;74.07;100515.22;5064128;28;19917;-77
2022/01/04 06:36:19;;;;;;;;;;;;;;;8.65;74.34;100522.69;5063687;28;19912;-77
2022/01/04 06:39:05;;;;;;;;;;;;;;;8.80;73.78;100522.31;5066500;28;19913;-77
2022/01/04 06:41:49;;;;;;;;;;;;;;;8.79;73.82;100522.63;5066663;28;20410;-78
2022/01/04 06:44:34;;;;;;;;;;;;;;;8.77;73.68;100522.13;5070615;28;19917;-78
2022/01/04 06:47:18;;;;;;;;;;;;;;;8.61;74.60;100520.91;5075458;28;19913;-78
2022/01/04 06:50:03;;;;;;;;;;;;;;;8.61;73.82;100518.19;5076514;28;19912;-77
2022/01/04 06:52:47;;;;;;;;;;;;;;;8.65;74.35;100543.56;5074806;28;19913;-77
2022/01/04 06:55:32;;;;;;;;;;;;;;;8.83;73.63;100542.59;5069172;28;19912;-78
2022/01/04 06:58:17;;;;;;;;;;;;;;;8.80;73.70;100552.16;5072270;28;19916;-77
2022/01/04 07:01:01;;;;;;;;;;;;;;;8.54;73.62;100545.69;5075134;28;19912;-77
2022/01/04 07:03:46;;;;;;;;;;;;;;;7.47;77.84;100541.63;5078933;28;19928;-78
2022/01/04 07:06:31;;;;;;;;;;;;;;;6.78;82.13;100529.84;5074255;28;20388;-79
2022/01/04 07:09:16;;;;;;;;;;;;;;;6.73;83.47;100526.41;5067425;28;19916;-78
2022/01/04 07:12:00;;;;;;;;;;;;;;;6.60;84.49;100529.88;5073581;28;19931;-77
2022/01/04 07:14:45;;;;;;;;;;;;;;;6.58;84.96;100523.94;5072614;28;20368;-78
2022/01/04 07:17:29;;;;;;;;;;;;;;;6.75;84.14;100519.63;5069014;28;19912;-78
2022/01/04 07:20:13;;;;;;;;;;;;;;;6.60;83.90;100530.69;5078376;28;19912;-78
2022/01/04 07:22:58;;;;;;;;;;;;;;;6.51;84.86;100532.41;5082603;28;19916;-79
2022/01/04 07:25:42;;;;;;;;;;;;;;;6.45;84.86;100520.06;5083686;28;20300;-79
2022/01/04 07:28:27;;;;;;;;;;;;;;;6.44;86.09;100524.69;5081968;28;19912;-79
2022/01/04 07:31:12;;;;;;;;;;;;;;;6.48;85.20;100526.78;5085547;28;20293;-79
2022/01/04 07:33:57;;;;;;;;;;;;;;;6.59;85.34;100542.56;5084348;28;19912;-79
2022/01/04 07:36:41;;;;;;;;;;;;;;;6.64;84.88;100539.78;5079979;28;19913;-79
2022/01/04 07:39:26;;;;;;;;;;;;;;;6.90;84.50;100542.91;5077161;28;19916;-79
2022/01/04 07:42:10;;;;;;;;;;;;;;;6.70;84.21;100546.72;5081651;28;19917;-79
2022/01/04 07:44:54;;;;;;;;;;;;;;;6.51;85.25;100543.22;5080656;28;19912;-79
2022/01/04 07:47:41;;;;;;;;;;;;;;;6.56;85.61;100532.34;5081161;28;19912;-79
2022/01/04 07:50:26;;;;;;;;;;;;;;;6.60;85.31;100533.38;5075957;28;19916;-78
2022/01/04 07:53:11;;;;;;;;;;;;;;;6.54;85.25;100537.25;5079489;28;20297;-79
2022/01/04 07:55:55;;;;;;;;;;;;;;;6.80;84.85;100524.16;5091138;28;19912;-79
2022/01/04 07:58:40;;;;;;;;;;;;;;;6.94;83.68;100530.41;5071564;28;20276;-79
2022/01/04 08:01:25;;;;;;;;;;;;;;;6.92;83.55;100539.88;5068780;28;19912;-79
2022/01/04 08:04:09;;;;;;;;;;;;;;;7.16;83.32;100538.66;5070657;28;19917;-80
2022/01/04 08:06:54;;;;;;;;;;;;;;;6.92;83.18;100537.19;5084115;28;19913;-79
2022/01/04 08:09:39;;;;;;;;;;;;;;;7.10;82.59;100539.06;5079584;28;19912;-79
2022/01/04 08:12:23;;;;;;;;;;;;;;;6.64;85.02;100542.50;5071769;28;19912;-79
2022/01/04 08:15:08;;;;;;;;;;;;;;;6.63;85.22;100538.19;5072780;28;19912;-79
2022/01/04 08:17:53;;;;;;;;;;;;;;;6.62;86.16;100535.75;5084554;28;19912;-79
2022/01/04 08:20:38;;;;;;;;;;;;;;;6.90;84.39;100545.63;5090751;28;19912;-80
2022/01/04 08:23:22;;;;;;;;;;;;;;;7.42;82.85;100535.50;5082193;28;19916;-79
2022/01/04 08:26:06;;;;;;;;;;;;;;;7.68;80.89;100536.63;5080859;28;19912;-78
2022/01/04 08:28:51;;;;;;;;;;;;;;;7.71;79.90;100536.06;5074659;28;20296;-77
2022/01/04 08:31:35;;;;;;;;;;;;;;;7.58;80.35;100528.72;5073997;28;19912;-77
2022/01/04 08:34:20;;;;;;;;;;;;;;;7.76;80.06;100524.34;5064265;28;20380;-77
2022/01/04 08:37:04;;;;;;;;;;;;;;;7.84;79.15;100512.78;5074540;28;19912;-78
2022/01/04 08:39:48;;;;;;;;;;;;;;;7.82;79.23;100515.81;5074837;28;20292;-78
2022/01/04 08:42:34;;;;;;;;;;;;;;;7.53;80.78;100513.38;5077459;28;19916;-77
2022/01/04 08:45:21;;;;;;;;;;;;;;;7.30;82.14;100507.06;5079567;28;19912;-77
2022/01/04 08:48:05;;;;;;;;;;;;;;;7.57;81.29;100508.16;5074281;28;20288;-78
2022/01/04 08:50:49;;;;;;;;;;;;;;;7.77;80.64;100515.13;5075148;28;19912;-78
2022/01/04 08:53:34;;;;;;;;;;;;;;;7.92;79.85;100518.31;5070873;28;19920;-78
2022/01/04 08:56:19;;;;;;;;;;;;;;;7.56;80.90;100523.63;5072411;28;19913;-78
2022/01/04 08:59:05;;;;;;;;;;;;;;;7.45;82.17;100510.59;5078541;28;19916;-78
2022/01/04 09:01:50;;;;;;;;;;;;;;;7.52;81.74;100505.56;5071596;28;19912;-78
2022/01/04 09:04:34;;;;;;;;;;;;;;;7.91;80.21;100499.66;5075391;28;19916;-78
2022/01/04 09:07:18;;;;;;;;;;;;;;;8.14;79.25;100495.91;5071855;28;20304;-78
2022/01/04 09:10:03;;;;;;;;;;;;;;;8.16;78.16;100510.75;5078442;28;19912;-78
2022/01/04 09:12:56;;;;;;;;;;;;;;;8.22;78.63;100516.88;5072746;28;20063;-78
2022/01/04 09:18:43;;;;;;;;;;;;;;;8.27;77.53;100513.25;5067588;28;19920;-78
2022/01/04 09:19:00;;;;;;;;;;;;;;;7.98;79.55;100518.97;5069045;28;19913;-79
2022/01/04 09:21:45;;;;;;;;;;;;;;;7.77;80.77;100515.13;5070351;28;19912;-79
2022/01/04 09:24:30;;;;;;;;;;;;;;;7.90;79.76;100503.47;5076100;28;19916;-78
2022/01/04 09:27:14;;;;;;;;;;;;;;;7.94;79.77;100507.97;5073057;28;19920;-79
2022/01/04 09:30:03;;;;;;;;;;;;;;;8.04;79.45;100512.38;5073709;28;19913;-79
2022/01/04 09:32:48;;;;;;;;;;;;;;;7.50;81.80;100515.91;5070365;28;19912;-79
2022/01/04 09:35:33;;;;;;;;;;;;;;;7.44;82.56;100509.78;5076608;28;19912;-79
2022/01/04 09:38:18;;;;;;;;;;;;;;;7.42;82.70;100498.44;5077426;28;19913;-79
2022/01/04 09:41:02;;;;;;;;;;;;;;;7.35;83.01;100503.47;5077082;28;19912;-78
2022/01/04 09:43:49;;;;;;;;;;;;;;;7.46;82.31;100502.19;5073077;28;19921;-78
2022/01/04 09:46:34;;;;;;;;;;;;;;;7.41;82.66;100488.75;5079390;28;19912;-78
2022/01/04 09:49:18;;;;;;;;;;;;;;;7.39;82.45;100499.06;5082125;28;20379;-78
2022/01/04 09:52:03;;;;;;;;;;;;;;;7.21;83.53;100505.34;5082188;28;19912;-78
2022/01/04 09:54:52;;;;;;;;;;;;;;;7.32;83.43;100490.53;5076323;28;19913;-78
2022/01/04 09:57:37;;;;;;;;;;;;;;;7.28;83.67;100487.63;5074781;28;19916;-78
2022/01/04 10:00:21;;;;;;;;;;;;;;;7.49;82.77;100492.66;5068882;28;19912;-78
2022/01/04 10:03:14;;;;;;;;;;;;;;;7.54;82.23;100493.34;5060007;28;20476;-78
2022/01/04 10:06:01;;;;;;;;;;;;;;;7.41;82.62;100487.94;5068040;28;19912;-77
2022/01/04 10:09:00;;;;;;;;;;;;;;;7.76;81.62;100478.31;5074384;28;19916;-78
2022/01/04 10:11:50;;;;;;;;;;;;;;;7.57;82.08;100481.91;5072920;28;20293;-77
2022/01/04 10:14:38;;;;;;;;;;;;;;;7.58;82.74;100477.31;5077610;28;20372;-78
2022/01/04 10:17:25;;;;;;;;;;;;;;;7.44;82.62;100468.41;5071710;28;19912;-78
2022/01/04 10:20:10;;;;;;;;;;;;;;;7.61;82.55;100469.41;5074722;28;19912;-77
2022/01/04 10:22:54;;;;;;;;;;;;;;;7.59;82.71;100466.19;5072452;28;19916;-77
2022/01/04 10:25:39;;;;;;;;;;;;;;;7.60;82.88;100446.16;5071649;28;19913;-77
2022/01/04 10:28:34;;;;;;;;;;;;;;;7.53;82.63;100453.88;5063997;28;19912;-76
2022/01/04 10:31:19;;;;;;;;;;;;;;;7.88;81.10;100452.31;5071268;28;19932;-77
2022/01/04 10:34:03;;;;;;;;;;;;;;;7.80;80.91;100449.53;5076234;28;19912;-78
2022/01/04 10:36:49;;;;;;;;;;;;;;;7.60;81.76;100443.44;5069732;28;19913;-77
2022/01/04 10:39:33;;;;;;;;;;;;;;;7.71;81.70;100452.97;5078056;28;19912;-77
2022/01/04 10:42:22;;;;;;;;;;;;;;;7.69;81.85;100447.03;5077590;28;19913;-78
2022/01/04 10:45:23;;;;;;;;;;;;;;;7.60;82.33;100448.06;5074602;28;20116;-78
2022/01/04 10:48:15;;;;;;;;;;;;;;;7.90;81.54;100438.50;5076996;28;20531;-78
2022/01/04 10:51:05;;;;;;;;;;;;;;;7.80;81.12;100438.72;5079817;28;19912;-77
2022/01/04 10:53:51;;;;;;;;;;;;;;;7.87;81.74;100437.22;5081312;28;19912;-77
2022/01/04 10:56:37;;;;;;;;;;;;;;;7.73;80.73;100433.69;5071833;28;19912;-77
2022/01/04 10:59:27;;;;;;;;;;;;;;;7.91;81.74;100426.56;5077579;28;19912;-78
2022/01/04 11:02:12;;;;;;;;;;;;;;;8.23;79.59;100426.34;5082081;28;19912;-78
2022/01/04 11:05:12;;;;;;;;;;;;;;;8.16;78.53;100417.88;5077472;28;19920;-77
2022/01/04 11:07:58;;;;;;;;;;;;;;;8.17;78.69;100427.59;5073527;28;19916;-77
2022/01/04 11:10:43;;;;;;;;;;;;;;;8.03;79.65;100414.09;5079846;28;19912;-78
2022/01/04 11:13:28;;;;;;;;;;;;;;;8.12;79.40;100411.47;5057793;28;19913;-78
2022/01/04 11:16:12;;;;;;;;;;;;;;;8.25;78.88;100407.91;5057197;28;19912;-77
2022/01/04 11:18:57;;;;;;;;;;;;;;;8.21;78.79;100400.69;5059649;28;20313;-77
2022/01/04 11:21:42;;;;;;;;;;;;;;;8.20;79.48;100399.09;5059530;28;19912;-77
2022/01/04 11:24:27;;;;;;;;;;;;;;;8.29;78.91;100389.13;5058715;28;19920;-78
2022/01/04 11:27:12;;;;;;;;;;;;;;;8.34;78.91;100397.94;5057929;28;19912;-77
2022/01/04 11:30:06;;;;;;;;;;;;;;;8.29;78.70;100384.50;5060790;28;20289;-77
2022/01/04 11:32:54;;;;;;;;;;;;;;;8.22;79.22;100384.16;5068239;28;19916;-78
2022/01/04 11:35:38;;;;;;;;;;;;;;;8.40;78.84;100385.09;5064411;28;19912;-77
2022/01/04 11:38:30;;;;;;;;;;;;;;;8.41;77.96;100370.44;5077675;28;20388;-77
2022/01/04 11:41:39;;;;;;;;;;;;;;;8.41;78.92;100373.16;5075783;28;19912;-77
2022/01/04 11:44:24;;;;;;;;;;;;;;;8.43;78.49;100369.00;5078439;28;20296;-77
2022/01/04 11:47:09;;;;;;;;;;;;;;;8.48;78.74;100360.75;5077137;28;20380;-78
2022/01/04 11:50:02;;;;;;;;;;;;;;;8.53;78.13;100357.91;5079988;28;19915;-78
2022/01/04 11:52:49;;;;;;;;;;;;;;;8.44;78.15;100353.56;5068191;28;19916;-77
2022/01/04 11:55:36;;;;;;;;;;;;;;;8.50;77.98;100355.84;5071132;28;19913;-77
2022/01/04 11:58:41;;;;;;;;;;;;;;;8.33;78.75;100346.81;5080107;28;19912;-77
2022/01/04 12:01:27;;;;;;;;;;;;;;;8.22;79.58;100345.44;5068920;28;19934;-77
2022/01/04 12:04:11;;;;;;;;;;;;;;;8.20;79.52;100334.88;5072248;28;19916;-78
2022/01/04 12:06:57;;;;;;;;;;;;;;;8.31;79.26;100332.75;5073100;28;19912;-78
2022/01/04 12:09:41;;;;;;;;;;;;;;;8.24;79.64;100333.16;5075437;28;19912;-77
2022/01/04 12:12:45;;;;;;;;;;;;;;;8.26;79.38;100320.13;5079409;28;19912;-77
2022/01/04 12:15:32;;;;;;;;;;;;;;;8.18;80.16;100302.69;5077851;28;19912;-77
2022/01/04 12:18:23;;;;;;;;;;;;;;;8.33;79.19;100298.06;5071034;28;19946;-77
2022/01/04 12:21:12;;;;;;;;;;;;;;;8.34;78.97;100289.59;5071575;28;19920;-76
2022/01/04 12:23:57;;;;;;;;;;;;;;;8.40;78.53;100292.97;5075932;28;19920;-77
2022/01/04 12:26:42;;;;;;;;;;;;;;;8.14;79.12;100282.75;5078832;28;20384;-77
2022/01/04 12:29:31;;;;;;;;;;;;;;;8.30;78.67;100277.78;5080357;28;19916;-77
2022/01/04 12:32:20;;;;;;;;;;;;;;;8.36;77.85;100264.91;5076744;28;19912;-77
2022/01/04 12:35:07;;;;;;;;;;;;;;;8.30;78.34;100260.72;5071058;28;19912;-77
2022/01/04 12:37:53;;;;;;;;;;;;;;;8.39;78.11;100272.41;5068841;28;19916;-77
2022/01/04 12:40:37;;;;;;;;;;;;;;;8.40;78.43;100263.16;5055780;28;19917;-77
2022/01/04 12:43:22;;;;;;;;;;;;;;;8.36;78.41;100257.59;5094232;28;19915;-77
2022/01/04 12:46:07;;;;;;;;;;;;;;;8.58;77.47;100262.94;5087132;28;19913;-77
2022/01/04 12:48:52;;;;;;;;;;;;;;;8.47;77.71;100267.06;5068534;28;19908;-77
2022/01/04 12:51:38;;;;;;;;;;;;;;;8.63;77.62;100261.22;5071110;28;19913;-78
2022/01/04 12:54:24;;;;;;;;;;;;;;;8.66;77.68;100238.91;5076671;28;19928;-77
2022/01/04 12:57:11;;;;;;;;;;;;;;;8.48;78.42;100246.19;5076451;28;19912;-78
2022/01/04 12:59:56;;;;;;;;;;;;;;;8.12;80.15;100249.78;5078623;28;19912;-78
2022/01/04 13:02:41;;;;;;;;;;;;;;;8.12;81.17;100243.56;5065574;28;19913;-77
2022/01/04 13:05:26;;;;;;;;;;;;;;;7.88;82.77;100243.88;5074083;28;19912;-78
2022/01/04 13:08:24;;;;;;;;;;;;;;;7.67;84.26;100227.34;5069810;28;19934;-77
2022/01/04 13:11:09;;;;;;;;;;;;;;;7.54;84.17;100222.81;5078462;28;19912;-78
2022/01/04 13:13:53;;;;;;;;;;;;;;;7.62;83.73;100223.97;5076463;28;20289;-77
2022/01/04 13:16:37;;;;;;;;;;;;;;;7.68;83.59;100209.19;5073234;28;19916;-77
2022/01/04 13:19:22;;;;;;;;;;;;;;;7.73;83.30;100204.47;5067088;28;19916;-77
2022/01/04 13:22:16;;;;;;;;;;;;;;;7.49;84.43;100206.69;5070247;28;19913;-77
2022/01/04 13:25:04;;;;;;;;;;;;;;;7.47;84.98;100216.19;5072100;28;19916;-77
2022/01/04 13:27:49;;;;;;;;;;;;;;;7.64;84.31;100217.16;5073605;28;20195;-77
2022/01/04 13:30:40;;;;;;;;;;;;;;;7.67;84.76;100221.94;5069513;28;19913;-78
2022/01/04 13:33:25;;;;;;;;;;;;;;;7.70;84.05;100217.81;5072461;28;19912;-77
2022/01/04 13:36:10;;;;;;;;;;;;;;;7.76;84.04;100218.50;5076074;28;19916;-77
2022/01/04 13:38:57;;;;;;;;;;;;;;;7.39;84.80;100206.13;5081334;28;19912;-79
2022/01/04 13:41:42;;;;;;;;;;;;;;;7.41;85.28;100207.44;5077691;28;19912;-78
2022/01/04 13:44:26;;;;;;;;;;;;;;;7.30;85.82;100203.38;5076376;28;19920;-78
2022/01/04 13:47:14;;;;;;;;;;;;;;;7.31;85.66;100218.50;5080048;28;19912;-78
2022/01/04 13:50:13;;;;;;;;;;;;;;;7.29;85.27;100194.44;5079410;28;19913;-78
2022/01/04 13:53:03;;;;;;;;;;;;;;;7.11;86.69;100202.72;5080416;28;19916;-77
2022/01/04 13:56:01;;;;;;;;;;;;;;;7.29;85.79;100196.34;5081096;28;19916;-78
2022/01/04 13:58:46;;;;;;;;;;;;;;;7.23;85.72;100190.25;5081530;28;19912;-78
2022/01/04 14:01:33;;;;;;;;;;;;;;;7.29;85.47;100182.81;5086062;28;19912;-78
2022/01/04 14:04:22;;;;;;;;;;;;;;;7.34;85.42;100182.72;5082725;28;19924;-78
2022/01/04 14:07:12;;;;;;;;;;;;;;;7.17;86.13;100201.47;5080932;28;20146;-78
2022/01/04 14:09:56;;;;;;;;;;;;;;;7.21;86.39;100188.97;5085157;28;20300;-78
2022/01/04 14:12:42;;;;;;;;;;;;;;;7.36;85.76;100193.22;5083726;28;19912;-79
2022/01/04 14:15:27;;;;;;;;;;;;;;;7.16;86.41;100208.78;5080865;28;19916;-78
2022/01/04 14:18:11;;;;;;;;;;;;;;;7.23;86.87;100211.09;5083892;28;20292;-78
2022/01/04 14:20:56;;;;;;;;;;;;;;;7.20;86.61;100199.00;5068366;28;19912;-78
2022/01/04 14:23:40;;;;;;;;;;;;;;;7.30;86.14;100197.94;5082255;28;19917;-78
2022/01/04 14:26:24;;;;;;;;;;;;;;;7.27;85.76;100191.22;5085095;28;19913;-78